sensor_id;sensor_type;location;lat;lon;timestamp;P1;durP1;ratioP1;P2;durP2;ratioP2
4857;SDS011;58975;51.978;8.472;2023-02-23T00:03:54;36.92;;;21.42;;
4857;SDS011;58975;51.978;8.472;2023-02-23T00:13:49;39.75;;;20.60;;
4857;SDS011;58975;51.978;8.472;2023-02-23T00:18:46;22.67;;;14.23;;
4857;SDS011;58975;51.978;8.472;2023-02-23T00:24:08;33.78;;;19.05;;
4857;SDS011;58975;51.978;8.472;2023-02-23T00:29:08;39.17;;;20.77;;
4857;SDS011;58975;51.978;8.472;2023-02-23T00:34:08;40.95;;;22.45;;
4857;SDS011;58975;51.978;8.472;2023-02-23T00:39:07;40.43;;;22.47;;
4857;SDS011;58975;51.978;8.472;2023-02-23T00:44:21;43.72;;;24.83;;
4857;SDS011;58975;51.978;8.472;2023-02-23T00:49:19;39.67;;;20.30;;
4857;SDS011;58975;51.978;8.472;2023-02-23T00:54:17;37.95;;;21.10;;
4857;SDS011;58975;51.978;8.472;2023-02-23T00:59:15;46.63;;;24.30;;
4857;SDS011;58975;51.978;8.472;2023-02-23T01:04:12;43.55;;;25.08;;
4857;SDS011;58975;51.978;8.472;2023-02-23T01:09:10;49.95;;;26.13;;
4857;SDS011;58975;51.978;8.472;2023-02-23T01:14:09;44.22;;;24.92;;
4857;SDS011;58975;51.978;8.472;2023-02-23T01:19:06;47.85;;;25.88;;
4857;SDS011;58975;51.978;8.472;2023-02-23T01:24:03;40.05;;;23.77;;
4857;SDS011;58975;51.978;8.472;2023-02-23T01:29:02;40.47;;;22.60;;
4857;SDS011;58975;51.978;8.472;2023-02-23T01:34:04;44.58;;;24.25;;
4857;SDS011;58975;51.978;8.472;2023-02-23T01:39:01;45.17;;;25.37;;
4857;SDS011;58975;51.978;8.472;2023-02-23T01:44:05;46.53;;;25.42;;
4857;SDS011;58975;51.978;8.472;2023-02-23T01:49:03;48.45;;;25.75;;
4857;SDS011;58975;51.978;8.472;2023-02-23T01:54:05;45.40;;;25.95;;
4857;SDS011;58975;51.978;8.472;2023-02-23T01:59:05;45.65;;;26.83;;
4857;SDS011;58975;51.978;8.472;2023-02-23T02:04:03;47.05;;;26.13;;
4857;SDS011;58975;51.978;8.472;2023-02-23T02:09:03;48.37;;;26.97;;
4857;SDS011;58975;51.978;8.472;2023-02-23T02:56:19;59.08;;;29.42;;
4857;SDS011;58975;51.978;8.472;2023-02-23T03:01:18;52.65;;;28.75;;
4857;SDS011;58975;51.978;8.472;2023-02-23T03:06:35;56.63;;;31.48;;
4857;SDS011;58975;51.978;8.472;2023-02-23T03:12:20;61.88;;;33.08;;
4857;SDS011;58975;51.978;8.472;2023-02-23T03:17:38;59.77;;;32.20;;
4857;SDS011;58975;51.978;8.472;2023-02-23T03:28:36;60.03;;;32.03;;
4857;SDS011;58975;51.978;8.472;2023-02-23T03:34:19;53.58;;;32.30;;
4857;SDS011;58975;51.978;8.472;2023-02-23T03:39:44;64.32;;;33.70;;
4857;SDS011;58975;51.978;8.472;2023-02-23T03:45:22;57.55;;;31.50;;
4857;SDS011;58975;51.978;8.472;2023-02-23T03:50:40;57.20;;;30.38;;
4857;SDS011;58975;51.978;8.472;2023-02-23T03:56:02;61.17;;;34.10;;
4857;SDS011;58975;51.978;8.472;2023-02-23T04:01:20;68.15;;;34.22;;
4857;SDS011;58975;51.978;8.472;2023-02-23T04:06:37;66.70;;;34.15;;
4857;SDS011;58975;51.978;8.472;2023-02-23T04:11:56;58.40;;;30.40;;
4857;SDS011;58975;51.978;8.472;2023-02-23T04:17:19;63.60;;;33.33;;
4857;SDS011;58975;51.978;8.472;2023-02-23T04:22:20;55.13;;;29.77;;
4857;SDS011;58975;51.978;8.472;2023-02-23T04:27:17;63.10;;;32.63;;
4857;SDS011;58975;51.978;8.472;2023-02-23T04:32:14;54.38;;;29.95;;
4857;SDS011;58975;51.978;8.472;2023-02-23T04:37:14;61.10;;;33.08;;
4857;SDS011;58975;51.978;8.472;2023-02-23T04:42:11;69.53;;;35.53;;
4857;SDS011;58975;51.978;8.472;2023-02-23T04:47:07;67.28;;;34.60;;
4857;SDS011;58975;51.978;8.472;2023-02-23T04:52:04;57.17;;;32.08;;
4857;SDS011;58975;51.978;8.472;2023-02-23T04:57:00;58.22;;;30.08;;
4857;SDS011;58975;51.978;8.472;2023-02-23T05:01:57;75.88;;;37.38;;
4857;SDS011;58975;51.978;8.472;2023-02-23T05:06:53;65.80;;;33.38;;
4857;SDS011;58975;51.978;8.472;2023-02-23T05:11:50;69.85;;;33.83;;
4857;SDS011;58975;51.978;8.472;2023-02-23T05:16:46;62.45;;;33.85;;
4857;SDS011;58975;51.978;8.472;2023-02-23T05:21:43;60.42;;;33.45;;
4857;SDS011;58975;51.978;8.472;2023-02-23T05:26:39;54.85;;;29.17;;
4857;SDS011;58975;51.978;8.472;2023-02-23T05:31:36;53.83;;;28.27;;
4857;SDS011;58975;51.978;8.472;2023-02-23T05:36:32;56.60;;;28.42;;
4857;SDS011;58975;51.978;8.472;2023-02-23T05:41:29;49.60;;;26.70;;
4857;SDS011;58975;51.978;8.472;2023-02-23T05:46:25;72.80;;;34.90;;
4857;SDS011;58975;51.978;8.472;2023-02-23T05:51:22;59.30;;;31.10;;
4857;SDS011;58975;51.978;8.472;2023-02-23T05:56:19;57.08;;;31.98;;
4857;SDS011;58975;51.978;8.472;2023-02-23T06:01:16;66.72;;;33.97;;
4857;SDS011;58975;51.978;8.472;2023-02-23T06:06:14;71.70;;;35.00;;
4857;SDS011;58975;51.978;8.472;2023-02-23T06:11:11;79.00;;;40.35;;
4857;SDS011;58975;51.978;8.472;2023-02-23T06:16:07;81.97;;;40.00;;
4857;SDS011;58975;51.978;8.472;2023-02-23T06:21:04;72.90;;;37.35;;
4857;SDS011;58975;51.978;8.472;2023-02-23T06:26:01;80.38;;;39.35;;
4857;SDS011;58975;51.978;8.472;2023-02-23T06:30:57;77.95;;;38.38;;
4857;SDS011;58975;51.978;8.472;2023-02-23T06:35:54;65.57;;;35.35;;
4857;SDS011;58975;51.978;8.472;2023-02-23T06:40:51;56.15;;;31.38;;
4857;SDS011;58975;51.978;8.472;2023-02-23T06:45:47;61.65;;;33.03;;
4857;SDS011;58975;51.978;8.472;2023-02-23T06:50:43;64.25;;;30.95;;
4857;SDS011;58975;51.978;8.472;2023-02-23T06:55:40;72.35;;;36.83;;
4857;SDS011;58975;51.978;8.472;2023-02-23T07:00:36;73.28;;;36.95;;
4857;SDS011;58975;51.978;8.472;2023-02-23T07:05:38;67.18;;;32.42;;
4857;SDS011;58975;51.978;8.472;2023-02-23T07:10:34;73.78;;;36.58;;
4857;SDS011;58975;51.978;8.472;2023-02-23T07:15:30;83.72;;;38.92;;
4857;SDS011;58975;51.978;8.472;2023-02-23T07:20:27;78.65;;;40.05;;
4857;SDS011;58975;51.978;8.472;2023-02-23T07:25:23;80.45;;;39.15;;
4857;SDS011;58975;51.978;8.472;2023-02-23T07:30:20;71.75;;;36.13;;
4857;SDS011;58975;51.978;8.472;2023-02-23T07:35:21;77.85;;;35.70;;
4857;SDS011;58975;51.978;8.472;2023-02-23T07:40:17;74.35;;;37.67;;
4857;SDS011;58975;51.978;8.472;2023-02-23T07:45:14;92.95;;;41.92;;
4857;SDS011;58975;51.978;8.472;2023-02-23T07:50:12;78.47;;;38.88;;
4857;SDS011;58975;51.978;8.472;2023-02-23T07:55:09;82.50;;;39.00;;
4857;SDS011;58975;51.978;8.472;2023-02-23T08:00:07;94.28;;;42.30;;
4857;SDS011;58975;51.978;8.472;2023-02-23T08:05:04;83.13;;;40.67;;
4857;SDS011;58975;51.978;8.472;2023-02-23T08:10:01;79.03;;;38.42;;
4857;SDS011;58975;51.978;8.472;2023-02-23T08:14:57;84.35;;;40.10;;
4857;SDS011;58975;51.978;8.472;2023-02-23T08:19:53;100.30;;;43.25;;
4857;SDS011;58975;51.978;8.472;2023-02-23T08:24:50;94.95;;;43.28;;
4857;SDS011;58975;51.978;8.472;2023-02-23T08:29:47;103.85;;;47.65;;
4857;SDS011;58975;51.978;8.472;2023-02-23T08:34:43;122.55;;;51.20;;
4857;SDS011;58975;51.978;8.472;2023-02-23T08:39:40;116.20;;;49.50;;
4857;SDS011;58975;51.978;8.472;2023-02-23T08:49:34;122.40;;;49.03;;
4857;SDS011;58975;51.978;8.472;2023-02-23T08:54:31;117.68;;;51.65;;
4857;SDS011;58975;51.978;8.472;2023-02-23T08:59:27;123.38;;;53.35;;
4857;SDS011;58975;51.978;8.472;2023-02-23T09:04:24;124.63;;;53.42;;
4857;SDS011;58975;51.978;8.472;2023-02-23T09:09:20;129.48;;;56.30;;
4857;SDS011;58975;51.978;8.472;2023-02-23T09:14:16;146.15;;;56.83;;
4857;SDS011;58975;51.978;8.472;2023-02-23T09:19:13;143.30;;;60.45;;
4857;SDS011;58975;51.978;8.472;2023-02-23T09:24:10;144.90;;;55.92;;
4857;SDS011;58975;51.978;8.472;2023-02-23T09:29:06;155.35;;;62.30;;
4857;SDS011;58975;51.978;8.472;2023-02-23T09:34:03;151.63;;;61.40;;
4857;SDS011;58975;51.978;8.472;2023-02-23T09:38:59;157.20;;;61.17;;
4857;SDS011;58975;51.978;8.472;2023-02-23T09:44:06;164.27;;;62.78;;
4857;SDS011;58975;51.978;8.472;2023-02-23T09:54:19;159.00;;;62.40;;
4857;SDS011;58975;51.978;8.472;2023-02-23T09:59:19;168.38;;;63.47;;
4857;SDS011;58975;51.978;8.472;2023-02-23T10:04:22;156.13;;;64.80;;
4857;SDS011;58975;51.978;8.472;2023-02-23T10:09:27;152.50;;;63.58;;
4857;SDS011;58975;51.978;8.472;2023-02-23T10:14:32;156.43;;;62.70;;
4857;SDS011;58975;51.978;8.472;2023-02-23T10:19:47;145.18;;;61.80;;
4857;SDS011;58975;51.978;8.472;2023-02-23T10:24:55;134.70;;;54.95;;
4857;SDS011;58975;51.978;8.472;2023-02-23T10:29:56;130.20;;;55.90;;
4857;SDS011;58975;51.978;8.472;2023-02-23T10:34:56;125.45;;;54.45;;
4857;SDS011;58975;51.978;8.472;2023-02-23T10:39:53;122.05;;;54.10;;
4857;SDS011;58975;51.978;8.472;2023-02-23T10:44:49;115.57;;;52.90;;
4857;SDS011;58975;51.978;8.472;2023-02-23T10:49:47;110.22;;;49.15;;
4857;SDS011;58975;51.978;8.472;2023-02-23T10:54:48;111.47;;;51.20;;
4857;SDS011;58975;51.978;8.472;2023-02-23T11:00:00;99.57;;;50.10;;
4857;SDS011;58975;51.978;8.472;2023-02-23T11:04:58;110.13;;;50.60;;
4857;SDS011;58975;51.978;8.472;2023-02-23T11:09:56;99.75;;;48.55;;
4857;SDS011;58975;51.978;8.472;2023-02-23T11:14:54;98.80;;;45.77;;
4857;SDS011;58975;51.978;8.472;2023-02-23T11:24:53;95.53;;;44.42;;
4857;SDS011;58975;51.978;8.472;2023-02-23T11:29:51;101.88;;;46.40;;
4857;SDS011;58975;51.978;8.472;2023-02-23T11:35:10;88.20;;;42.97;;
4857;SDS011;58975;51.978;8.472;2023-02-23T11:40:29;89.40;;;40.00;;
4857;SDS011;58975;51.978;8.472;2023-02-23T11:45:30;86.80;;;40.05;;
4857;SDS011;58975;51.978;8.472;2023-02-23T11:50:34;90.93;;;40.65;;
4857;SDS011;58975;51.978;8.472;2023-02-23T11:55:31;85.05;;;38.35;;
4857;SDS011;58975;51.978;8.472;2023-02-23T12:00:31;82.47;;;39.60;;
4857;SDS011;58975;51.978;8.472;2023-02-23T12:05:29;91.05;;;38.85;;
4857;SDS011;58975;51.978;8.472;2023-02-23T12:15:39;96.88;;;38.90;;
4857;SDS011;58975;51.978;8.472;2023-02-23T12:20:38;87.05;;;36.55;;
4857;SDS011;58975;51.978;8.472;2023-02-23T12:25:39;97.78;;;39.60;;
4857;SDS011;58975;51.978;8.472;2023-02-23T12:30:53;107.15;;;40.15;;
4857;SDS011;58975;51.978;8.472;2023-02-23T12:35:57;98.15;;;39.55;;
4857;SDS011;58975;51.978;8.472;2023-02-23T12:41:00;94.97;;;40.33;;
4857;SDS011;58975;51.978;8.472;2023-02-23T12:46:12;97.82;;;38.40;;
4857;SDS011;58975;51.978;8.472;2023-02-23T12:51:59;104.47;;;40.38;;
4857;SDS011;58975;51.978;8.472;2023-02-23T12:56:56;95.72;;;36.40;;
4857;SDS011;58975;51.978;8.472;2023-02-23T13:27:56;71.18;;;28.95;;
4857;SDS011;58975;51.978;8.472;2023-02-23T13:32:55;82.28;;;29.83;;
4857;SDS011;58975;51.978;8.472;2023-02-23T13:38:16;82.70;;;31.67;;
4857;SDS011;58975;51.978;8.472;2023-02-23T13:43:26;76.70;;;29.67;;
4857;SDS011;58975;51.978;8.472;2023-02-23T13:48:32;73.60;;;30.40;;
4857;SDS011;58975;51.978;8.472;2023-02-23T13:53:58;79.00;;;27.80;;
4857;SDS011;58975;51.978;8.472;2023-02-23T13:59:00;70.03;;;26.90;;
4857;SDS011;58975;51.978;8.472;2023-02-23T14:03:59;68.53;;;26.05;;
4857;SDS011;58975;51.978;8.472;2023-02-23T14:08:59;66.55;;;24.65;;
4857;SDS011;58975;51.978;8.472;2023-02-23T14:14:03;61.88;;;24.98;;
4857;SDS011;58975;51.978;8.472;2023-02-23T14:19:04;64.65;;;21.63;;
4857;SDS011;58975;51.978;8.472;2023-02-23T14:24:12;49.20;;;19.27;;
4857;SDS011;58975;51.978;8.472;2023-02-23T14:34:11;59.60;;;20.35;;
4857;SDS011;58975;51.978;8.472;2023-02-23T14:39:13;65.30;;;21.73;;
4857;SDS011;58975;51.978;8.472;2023-02-23T14:49:32;49.65;;;17.60;;
4857;SDS011;58975;51.978;8.472;2023-02-23T14:54:37;46.67;;;18.00;;
4857;SDS011;58975;51.978;8.472;2023-02-23T14:59:36;51.58;;;19.35;;
4857;SDS011;58975;51.978;8.472;2023-02-23T15:04:34;48.58;;;17.52;;
4857;SDS011;58975;51.978;8.472;2023-02-23T15:09:38;49.22;;;17.63;;
4857;SDS011;58975;51.978;8.472;2023-02-23T15:14:37;49.28;;;16.17;;
4857;SDS011;58975;51.978;8.472;2023-02-23T15:19:35;47.75;;;16.00;;
4857;SDS011;58975;51.978;8.472;2023-02-23T15:24:41;40.20;;;15.27;;
4857;SDS011;58975;51.978;8.472;2023-02-23T15:29:39;42.42;;;16.02;;
4857;SDS011;58975;51.978;8.472;2023-02-23T15:34:36;44.58;;;16.48;;
4857;SDS011;58975;51.978;8.472;2023-02-23T15:39:34;38.60;;;14.82;;
4857;SDS011;58975;51.978;8.472;2023-02-23T15:44:35;46.75;;;13.50;;
4857;SDS011;58975;51.978;8.472;2023-02-23T15:49:39;38.13;;;13.52;;
4857;SDS011;58975;51.978;8.472;2023-02-23T15:59:57;39.67;;;14.88;;
4857;SDS011;58975;51.978;8.472;2023-02-23T16:04:55;39.67;;;13.85;;
4857;SDS011;58975;51.978;8.472;2023-02-23T16:10:24;50.63;;;16.08;;
4857;SDS011;58975;51.978;8.472;2023-02-23T16:15:25;52.83;;;17.27;;
4857;SDS011;58975;51.978;8.472;2023-02-23T16:25:30;60.42;;;19.65;;
4857;SDS011;58975;51.978;8.472;2023-02-23T16:35:33;68.90;;;21.00;;
4857;SDS011;58975;51.978;8.472;2023-02-23T16:40:35;64.53;;;19.35;;
4857;SDS011;58975;51.978;8.472;2023-02-23T16:45:31;66.68;;;20.67;;
4857;SDS011;58975;51.978;8.472;2023-02-23T16:50:28;68.93;;;22.23;;
4857;SDS011;58975;51.978;8.472;2023-02-23T16:55:26;81.07;;;24.13;;
4857;SDS011;58975;51.978;8.472;2023-02-23T17:00:25;70.93;;;20.63;;
4857;SDS011;58975;51.978;8.472;2023-02-23T17:05:24;70.05;;;22.27;;
4857;SDS011;58975;51.978;8.472;2023-02-23T17:10:32;88.72;;;23.85;;
4857;SDS011;58975;51.978;8.472;2023-02-23T17:15:34;80.80;;;24.20;;
4857;SDS011;58975;51.978;8.472;2023-02-23T17:20:32;76.88;;;24.38;;
4857;SDS011;58975;51.978;8.472;2023-02-23T17:25:28;72.38;;;22.55;;
4857;SDS011;58975;51.978;8.472;2023-02-23T17:30:26;74.55;;;22.45;;
4857;SDS011;58975;51.978;8.472;2023-02-23T17:35:23;63.57;;;19.50;;
4857;SDS011;58975;51.978;8.472;2023-02-23T17:40:22;71.72;;;19.55;;
4857;SDS011;58975;51.978;8.472;2023-02-23T17:45:26;70.60;;;19.42;;
4857;SDS011;58975;51.978;8.472;2023-02-23T17:50:24;53.63;;;14.73;;
4857;SDS011;58975;51.978;8.472;2023-02-23T17:55:22;72.30;;;19.92;;
4857;SDS011;58975;51.978;8.472;2023-02-23T18:00:19;67.30;;;18.95;;
4857;SDS011;58975;51.978;8.472;2023-02-23T18:05:16;73.32;;;20.35;;
4857;SDS011;58975;51.978;8.472;2023-02-23T18:10:12;69.85;;;18.30;;
4857;SDS011;58975;51.978;8.472;2023-02-23T18:15:09;78.43;;;20.75;;
4857;SDS011;58975;51.978;8.472;2023-02-23T18:20:06;74.97;;;20.63;;
4857;SDS011;58975;51.978;8.472;2023-02-23T18:25:03;78.70;;;22.00;;
4857;SDS011;58975;51.978;8.472;2023-02-23T18:29:59;84.53;;;23.08;;
4857;SDS011;58975;51.978;8.472;2023-02-23T18:34:56;78.03;;;20.38;;
4857;SDS011;58975;51.978;8.472;2023-02-23T18:39:52;72.15;;;22.52;;
4857;SDS011;58975;51.978;8.472;2023-02-23T18:44:50;84.27;;;21.77;;
4857;SDS011;58975;51.978;8.472;2023-02-23T18:49:46;73.47;;;21.15;;
4857;SDS011;58975;51.978;8.472;2023-02-23T18:54:43;76.75;;;21.40;;
4857;SDS011;58975;51.978;8.472;2023-02-23T18:59:40;82.55;;;20.05;;
4857;SDS011;58975;51.978;8.472;2023-02-23T19:04:37;72.35;;;21.95;;
4857;SDS011;58975;51.978;8.472;2023-02-23T19:09:34;72.65;;;20.90;;
4857;SDS011;58975;51.978;8.472;2023-02-23T19:14:34;92.65;;;22.17;;
4857;SDS011;58975;51.978;8.472;2023-02-23T19:19:44;90.63;;;22.80;;
4857;SDS011;58975;51.978;8.472;2023-02-23T19:24:40;101.28;;;23.02;;
4857;SDS011;58975;51.978;8.472;2023-02-23T19:29:37;87.57;;;23.25;;
4857;SDS011;58975;51.978;8.472;2023-02-23T19:34:33;83.20;;;23.15;;
4857;SDS011;58975;51.978;8.472;2023-02-23T19:39:30;91.80;;;23.65;;
4857;SDS011;58975;51.978;8.472;2023-02-23T19:44:28;86.95;;;23.95;;
4857;SDS011;58975;51.978;8.472;2023-02-23T19:49:24;95.13;;;24.20;;
4857;SDS011;58975;51.978;8.472;2023-02-23T19:54:21;94.85;;;23.98;;
4857;SDS011;58975;51.978;8.472;2023-02-23T19:59:21;99.65;;;23.55;;
4857;SDS011;58975;51.978;8.472;2023-02-23T20:04:17;89.72;;;23.13;;
4857;SDS011;58975;51.978;8.472;2023-02-23T20:09:13;39.63;;;13.93;;
4857;SDS011;58975;51.978;8.472;2023-02-23T20:14:10;17.80;;;7.53;;
4857;SDS011;58975;51.978;8.472;2023-02-23T20:19:07;16.17;;;5.97;;
4857;SDS011;58975;51.978;8.472;2023-02-23T20:24:04;28.77;;;8.85;;
4857;SDS011;58975;51.978;8.472;2023-02-23T20:29:01;22.08;;;7.10;;
4857;SDS011;58975;51.978;8.472;2023-02-23T20:34:00;19.20;;;7.20;;
4857;SDS011;58975;51.978;8.472;2023-02-23T20:38:58;32.00;;;6.88;;
4857;SDS011;58975;51.978;8.472;2023-02-23T20:43:55;28.45;;;7.80;;
4857;SDS011;58975;51.978;8.472;2023-02-23T20:48:51;30.85;;;6.30;;
4857;SDS011;58975;51.978;8.472;2023-02-23T20:53:48;38.65;;;9.27;;
4857;SDS011;58975;51.978;8.472;2023-02-23T20:58:44;32.03;;;8.48;;
4857;SDS011;58975;51.978;8.472;2023-02-23T21:03:41;30.33;;;7.95;;
4857;SDS011;58975;51.978;8.472;2023-02-23T21:08:37;40.58;;;7.70;;
4857;SDS011;58975;51.978;8.472;2023-02-23T21:13:37;31.20;;;6.93;;
4857;SDS011;58975;51.978;8.472;2023-02-23T21:18:34;36.97;;;8.15;;
4857;SDS011;58975;51.978;8.472;2023-02-23T21:23:31;25.88;;;7.72;;
4857;SDS011;58975;51.978;8.472;2023-02-23T21:28:28;28.60;;;7.07;;
4857;SDS011;58975;51.978;8.472;2023-02-23T21:33:24;31.33;;;6.25;;
4857;SDS011;58975;51.978;8.472;2023-02-23T21:38:20;31.50;;;6.65;;
4857;SDS011;58975;51.978;8.472;2023-02-23T21:43:18;34.13;;;8.43;;
4857;SDS011;58975;51.978;8.472;2023-02-23T21:48:15;28.40;;;6.18;;
4857;SDS011;58975;51.978;8.472;2023-02-23T21:53:11;31.83;;;6.50;;
4857;SDS011;58975;51.978;8.472;2023-02-23T21:58:08;35.60;;;6.70;;
4857;SDS011;58975;51.978;8.472;2023-02-23T22:03:04;30.95;;;7.90;;
4857;SDS011;58975;51.978;8.472;2023-02-23T22:08:01;27.05;;;6.82;;
4857;SDS011;58975;51.978;8.472;2023-02-23T22:12:57;32.60;;;7.80;;
4857;SDS011;58975;51.978;8.472;2023-02-23T22:17:55;27.27;;;5.35;;
4857;SDS011;58975;51.978;8.472;2023-02-23T22:22:51;33.33;;;5.65;;
4857;SDS011;58975;51.978;8.472;2023-02-23T22:27:47;31.85;;;4.25;;
4857;SDS011;58975;51.978;8.472;2023-02-23T22:32:44;36.20;;;4.80;;
4857;SDS011;58975;51.978;8.472;2023-02-23T22:37:40;26.55;;;4.82;;
4857;SDS011;58975;51.978;8.472;2023-02-23T22:42:37;25.10;;;6.70;;
4857;SDS011;58975;51.978;8.472;2023-02-23T22:47:34;25.33;;;4.05;;
4857;SDS011;58975;51.978;8.472;2023-02-23T22:52:31;33.80;;;5.55;;
4857;SDS011;58975;51.978;8.472;2023-02-23T23:02:26;31.65;;;5.78;;
4857;SDS011;58975;51.978;8.472;2023-02-23T23:07:27;31.27;;;5.18;;
4857;SDS011;58975;51.978;8.472;2023-02-23T23:22:22;21.85;;;3.88;;
4857;SDS011;58975;51.978;8.472;2023-02-23T23:27:20;22.42;;;4.15;;
4857;SDS011;58975;51.978;8.472;2023-02-23T23:32:16;22.85;;;4.18;;
4857;SDS011;58975;51.978;8.472;2023-02-23T23:37:16;24.95;;;5.15;;
4857;SDS011;58975;51.978;8.472;2023-02-23T23:42:13;20.25;;;4.68;;
4857;SDS011;58975;51.978;8.472;2023-02-23T23:47:09;22.05;;;4.00;;
4857;SDS011;58975;51.978;8.472;2023-02-23T23:52:06;21.83;;;4.53;;
4857;SDS011;58975;51.978;8.472;2023-02-23T23:57:03;20.85;;;3.55;;
